Big Bear Station Historical Data
Daily Summary for March 28, 2017 Units:  English    Metric   Both
« Previous Day
Next Day »
Daily Weekly Monthly Yearly Custom
  High: Low: Average:
Temperature: 55.4 °F 30.6 °F 41 °F
Dew Point: 24.1 °F 11.9 °F 17.7 °F
Humidity: 64 % 20 % 41 %
Wind Speed: 8.3 mph 0.0 mph 3.7 mph
Wind Gust: -999.0 mph - -
Wind:- - WSW
Pressure: 30.20 in 30.10 in -
Precipitation: 0.00 in    
Historical Graphs
 
 
Tabular Data for March 28, 2017
Time Temperature Dew Point Pressure Wind Wind Speed Wind Gust Humidity Rainfall Rate (Hourly)
00:08 35.1 °F 24.1 °F 30.12 in NW 6.3 mph -999.0 mph 64 % 0 in
00:23 35.1 °F 24.1 °F 30.12 in NNW 6.3 mph -999.0 mph 64 % 0 in
00:38 35.1 °F 22.2 °F 30.12 in WNW 6.3 mph -999.0 mph 59 % 0 in
00:53 34.7 °F 21.0 °F 30.12 in WNW 2.2 mph -999.0 mph 57 % 0 in
01:08 34.5 °F 21.2 °F 30.11 in ESE 1.7 mph -999.0 mph 58 % 0 in
01:39 34.7 °F 21.8 °F 30.11 in NW 4.2 mph -999.0 mph 59 % 0 in
01:54 34.2 °F 21.0 °F 30.11 in West 5.3 mph -999.0 mph 58 % 0 in
02:25 33.8 °F 19.8 °F 30.11 in WNW 6.8 mph -999.0 mph 56 % 0 in
02:40 34.0 °F 19.5 °F 30.11 in NNW 5.3 mph -999.0 mph 55 % 0 in
02:55 34.2 °F 20.5 °F 30.11 in South 3.7 mph -999.0 mph 57 % 0 in
03:10 33.3 °F 18.4 °F 30.11 in West 2.7 mph -999.0 mph 54 % 0 in
03:25 33.6 °F 18.7 °F 30.10 in NW 3.7 mph -999.0 mph 54 % 0 in
03:41 33.8 °F 18.0 °F 30.10 in NNW 7.8 mph -999.0 mph 52 % 0 in
03:56 34.2 °F 17.9 °F 30.10 in WNW 6.8 mph -999.0 mph 51 % 0 in
04:11 34.2 °F 17.9 °F 30.10 in North 2.2 mph -999.0 mph 51 % 0 in
04:26 33.3 °F 17.1 °F 30.10 in NNE 5.8 mph -999.0 mph 51 % 0 in
04:42 33.1 °F 16.9 °F 30.10 in NNW 4.7 mph -999.0 mph 51 % 0 in
04:57 32.5 °F 17.3 °F 30.11 in South 3.7 mph -999.0 mph 53 % 0 in
05:12 32.2 °F 17.4 °F 30.10 in SW 1.1 mph -999.0 mph 54 % 0 in
05:27 33.1 °F 16.9 °F 30.10 in NNW 6.8 mph -999.0 mph 51 % 0 in
05:43 32.9 °F 16.3 °F 30.11 in South 2.2 mph -999.0 mph 50 % 0 in
05:58 32.0 °F 16.3 °F 30.11 in SSW 2.7 mph -999.0 mph 52 % 0 in
06:13 31.1 °F 16.8 °F 30.12 in SSW 2.2 mph -999.0 mph 55 % 0 in
06:28 30.6 °F 16.8 °F 30.12 in East 1.7 mph -999.0 mph 56 % 0 in
06:43 30.6 °F 16.8 °F 30.12 in SW 3.7 mph -999.0 mph 56 % 0 in
06:59 31.1 °F 16.8 °F 30.12 in Calm   -999.0 mph 55 % 0 in
07:14 32.0 °F 16.8 °F 30.13 in East 2.7 mph -999.0 mph 53 % 0 in
07:30 32.7 °F 16.6 °F 30.13 in WNW 2.7 mph -999.0 mph 51 % 0 in
07:45 32.7 °F 17.4 °F 30.13 in NW 4.2 mph -999.0 mph 53 % 0 in
08:00 33.1 °F 17.8 °F 30.13 in NNW 2.2 mph -999.0 mph 53 % 0 in
08:15 34.0 °F 17.3 °F 30.14 in NNE 4.2 mph -999.0 mph 50 % 0 in
08:30 35.1 °F 17.4 °F 30.14 in NW 8.3 mph -999.0 mph 48 % 0 in
09:01 35.8 °F 18.0 °F 30.15 in NNW 6.8 mph -999.0 mph 48 % 0 in
09:16 36.3 °F 19.4 °F 30.15 in NW 5.8 mph -999.0 mph 50 % 0 in
09:32 36.9 °F 17.5 °F 30.16 in SE 2.7 mph -999.0 mph 45 % 0 in
09:47 37.6 °F 18.7 °F 30.16 in NE 5.3 mph -999.0 mph 46 % 0 in
10:02 38.7 °F 17.0 °F 30.16 in NNW 6.3 mph -999.0 mph 41 % 0 in
10:17 38.8 °F 14.7 °F 30.17 in NNW 5.3 mph -999.0 mph 37 % 0 in
10:33 39.7 °F 14.3 °F 30.17 in NNW 5.8 mph -999.0 mph 35 % 0 in
10:49 40.8 °F 13.2 °F 30.17 in North 5.3 mph -999.0 mph 32 % 0 in
11:04 42.8 °F 11.9 °F 30.17 in NNW 5.3 mph -999.0 mph 28 % 0 in
11:19 44.2 °F 15.4 °F 30.18 in NW 6.8 mph -999.0 mph 31 % 0 in
11:35 44.8 °F 17.4 °F 30.18 in NNW 7.3 mph -999.0 mph 33 % 0 in
11:50 46.2 °F 14.9 °F 30.18 in WNW 4.2 mph -999.0 mph 28 % 0 in
12:05 47.5 °F 16.0 °F 30.18 in NW 6.3 mph -999.0 mph 28 % 0 in
12:20 48.9 °F 18.0 °F 30.16 in NW 5.3 mph -999.0 mph 29 % 0 in
12:36 50.5 °F 16.9 °F 30.16 in WNW 4.2 mph -999.0 mph 26 % 0 in
12:51 51.6 °F 16.9 °F 30.16 in SSE 2.2 mph -999.0 mph 25 % 0 in
13:07 50.4 °F 18.5 °F 30.16 in NNW 6.8 mph -999.0 mph 28 % 0 in
13:22 51.6 °F 16.9 °F 30.16 in NW 4.7 mph -999.0 mph 25 % 0 in
13:37 52.5 °F 18.6 °F 30.16 in North 4.7 mph -999.0 mph 26 % 0 in
13:53 51.6 °F 17.8 °F 30.16 in NNW 6.3 mph -999.0 mph 26 % 0 in
14:08 51.8 °F 17.1 °F 30.15 in NNW 3.7 mph -999.0 mph 25 % 0 in
14:23 52.9 °F 18.0 °F 30.15 in NNW 4.7 mph -999.0 mph 25 % 0 in
14:39 53.4 °F 15.5 °F 30.14 in NW 4.7 mph -999.0 mph 22 % 0 in
14:54 54.0 °F 18.0 °F 30.14 in NW 4.7 mph -999.0 mph 24 % 0 in
15:09 53.6 °F 17.6 °F 30.14 in NW 5.8 mph -999.0 mph 24 % 0 in
15:25 53.2 °F 17.3 °F 30.14 in NNW 4.2 mph -999.0 mph 24 % 0 in
15:40 53.4 °F 16.5 °F 30.14 in ESE 1.7 mph -999.0 mph 23 % 0 in
15:55 55.4 °F 15.0 °F 30.14 in ESE 2.7 mph -999.0 mph 20 % 0 in
16:10 54.0 °F 14.9 °F 30.14 in NE 2.7 mph -999.0 mph 21 % 0 in
16:26 54.3 °F 14.0 °F 30.13 in WSW 4.2 mph -999.0 mph 20 % 0 in
16:41 53.8 °F 15.8 °F 30.13 in Calm   -999.0 mph 22 % 0 in
16:56 53.4 °F 19.3 °F 30.14 in NNW 3.7 mph -999.0 mph 26 % 0 in
17:11 55.0 °F 20.7 °F 30.15 in NW 4.7 mph -999.0 mph 26 % 0 in
17:27 54.3 °F 19.2 °F 30.15 in NNE 4.7 mph -999.0 mph 25 % 0 in
17:42 53.4 °F 17.5 °F 30.12 in NNW 3.7 mph -999.0 mph 24 % 0 in
17:57 48.7 °F 17.8 °F 30.12 in North 3.7 mph -999.0 mph 29 % 0 in
18:12 47.5 °F 17.6 °F 30.12 in NNW 4.7 mph -999.0 mph 30 % 0 in
18:27 46.6 °F 16.8 °F 30.12 in NW 3.7 mph -999.0 mph 30 % 0 in
18:43 45.9 °F 16.9 °F 30.12 in NNE 1.7 mph -999.0 mph 31 % 0 in
18:58 44.6 °F 19.3 °F 30.13 in Calm   -999.0 mph 36 % 0 in
19:13 42.6 °F 18.1 °F 30.13 in South 1.1 mph -999.0 mph 37 % 0 in
19:28 41.7 °F 17.3 °F 30.13 in SSE 2.2 mph -999.0 mph 37 % 0 in
19:43 41.0 °F 17.9 °F 30.15 in SSE 1.7 mph -999.0 mph 39 % 0 in
19:59 40.1 °F 17.1 °F 30.15 in SSE 1.1 mph -999.0 mph 39 % 0 in
20:14 39.0 °F 17.8 °F 30.15 in Calm   -999.0 mph 42 % 0 in
20:29 38.7 °F 17.6 °F 30.16 in Calm   -999.0 mph 42 % 0 in
20:44 37.9 °F 18.9 °F 30.17 in Calm   -999.0 mph 46 % 0 in
20:59 37.2 °F 18.8 °F 30.18 in Calm   -999.0 mph 47 % 0 in
21:15 36.9 °F 18.5 °F 30.18 in Calm   -999.0 mph 47 % 0 in
21:30 37.6 °F 17.1 °F 30.19 in SSE 2.2 mph -999.0 mph 43 % 0 in
21:45 37.8 °F 15.0 °F 30.19 in SSE 2.7 mph -999.0 mph 39 % 0 in
22:01 37.8 °F 15.6 °F 30.19 in South 2.7 mph -999.0 mph 40 % 0 in
22:16 37.9 °F 16.8 °F 30.19 in South 1.7 mph -999.0 mph 42 % 0 in
22:31 37.6 °F 16.6 °F 30.20 in SSE 1.1 mph -999.0 mph 42 % 0 in
22:47 37.2 °F 17.8 °F 30.20 in South 1.7 mph -999.0 mph 45 % 0 in
23:02 36.7 °F 18.8 °F 30.20 in ESE 1.1 mph -999.0 mph 48 % 0 in
23:17 37.6 °F 20.2 °F 30.20 in SSW 2.7 mph -999.0 mph 49 % 0 in
23:32 38.5 °F 17.9 °F 30.19 in South 1.7 mph -999.0 mph 43 % 0 in
23:48 40.5 °F 18.6 °F 30.19 in South 2.7 mph -999.0 mph 41 % 0 in
Big Bear CA Weather
Compliments of Weather Underground - 1.5 mb